sensor_id;sensor_type;location;lat;lon;timestamp;P1;durP1;ratioP1;P2;durP2;ratioP2
59474;SDS011;45288;51.136;16.928;2023-05-07T00:00:35;861.07;;;806.20;;
59474;SDS011;45288;51.136;16.928;2023-05-07T00:03:01;847.83;;;794.15;;
59474;SDS011;45288;51.136;16.928;2023-05-07T00:05:27;847.70;;;793.40;;
59474;SDS011;45288;51.136;16.928;2023-05-07T00:07:52;842.90;;;789.20;;
59474;SDS011;45288;51.136;16.928;2023-05-07T00:10:18;859.85;;;804.83;;
59474;SDS011;45288;51.136;16.928;2023-05-07T00:12:44;870.23;;;814.77;;
59474;SDS011;45288;51.136;16.928;2023-05-07T00:15:10;916.22;;;856.60;;
59474;SDS011;45288;51.136;16.928;2023-05-07T00:17:36;920.95;;;860.80;;
59474;SDS011;45288;51.136;16.928;2023-05-07T00:20:02;920.45;;;859.60;;
59474;SDS011;45288;51.136;16.928;2023-05-07T00:22:29;920.33;;;860.75;;
59474;SDS011;45288;51.136;16.928;2023-05-07T00:24:55;920.60;;;860.85;;
59474;SDS011;45288;51.136;16.928;2023-05-07T00:27:21;919.63;;;859.15;;
59474;SDS011;45288;51.136;16.928;2023-05-07T00:29:47;917.17;;;856.35;;
59474;SDS011;45288;51.136;16.928;2023-05-07T00:32:12;929.13;;;864.93;;
59474;SDS011;45288;51.136;16.928;2023-05-07T00:34:38;935.40;;;869.75;;
59474;SDS011;45288;51.136;16.928;2023-05-07T00:37:05;928.35;;;863.95;;
59474;SDS011;45288;51.136;16.928;2023-05-07T00:39:30;936.10;;;869.22;;
59474;SDS011;45288;51.136;16.928;2023-05-07T00:41:56;931.13;;;866.55;;
59474;SDS011;45288;51.136;16.928;2023-05-07T00:44:22;909.00;;;850.67;;
59474;SDS011;45288;51.136;16.928;2023-05-07T00:46:49;902.38;;;844.22;;
59474;SDS011;45288;51.136;16.928;2023-05-07T00:49:15;897.42;;;840.35;;
59474;SDS011;45288;51.136;16.928;2023-05-07T00:51:41;918.45;;;859.33;;
59474;SDS011;45288;51.136;16.928;2023-05-07T00:54:07;923.75;;;863.75;;
59474;SDS011;45288;51.136;16.928;2023-05-07T00:56:33;933.13;;;869.17;;
59474;SDS011;45288;51.136;16.928;2023-05-07T00:58:58;933.97;;;861.70;;
59474;SDS011;45288;51.136;16.928;2023-05-07T01:01:24;933.25;;;867.30;;
59474;SDS011;45288;51.136;16.928;2023-05-07T01:03:50;925.30;;;862.15;;
59474;SDS011;45288;51.136;16.928;2023-05-07T01:06:16;923.57;;;853.03;;
59474;SDS011;45288;51.136;16.928;2023-05-07T01:08:42;919.07;;;848.83;;
59474;SDS011;45288;51.136;16.928;2023-05-07T01:11:08;910.35;;;841.85;;
59474;SDS011;45288;51.136;16.928;2023-05-07T01:13:35;911.30;;;846.70;;
59474;SDS011;45288;51.136;16.928;2023-05-07T01:16:02;908.53;;;844.40;;
59474;SDS011;45288;51.136;16.928;2023-05-07T01:18:28;917.55;;;851.13;;
59474;SDS011;45288;51.136;16.928;2023-05-07T01:20:55;904.13;;;838.80;;
59474;SDS011;45288;51.136;16.928;2023-05-07T01:23:22;911.78;;;840.90;;
59474;SDS011;45288;51.136;16.928;2023-05-07T01:25:51;900.45;;;834.92;;
59474;SDS011;45288;51.136;16.928;2023-05-07T01:28:17;899.17;;;831.03;;
59474;SDS011;45288;51.136;16.928;2023-05-07T01:30:44;913.00;;;843.67;;
59474;SDS011;45288;51.136;16.928;2023-05-07T01:33:13;907.65;;;842.55;;
59474;SDS011;45288;51.136;16.928;2023-05-07T01:35:43;919.43;;;850.07;;
59474;SDS011;45288;51.136;16.928;2023-05-07T01:38:10;900.40;;;836.40;;
59474;SDS011;45288;51.136;16.928;2023-05-07T01:40:37;900.05;;;834.03;;
59474;SDS011;45288;51.136;16.928;2023-05-07T01:43:03;899.93;;;828.97;;
59474;SDS011;45288;51.136;16.928;2023-05-07T01:45:30;900.33;;;825.65;;
59474;SDS011;45288;51.136;16.928;2023-05-07T01:47:57;896.13;;;832.45;;
59474;SDS011;45288;51.136;16.928;2023-05-07T01:50:23;889.15;;;826.53;;
59474;SDS011;45288;51.136;16.928;2023-05-07T01:52:50;901.65;;;834.90;;
59474;SDS011;45288;51.136;16.928;2023-05-07T01:55:16;891.42;;;824.72;;
59474;SDS011;45288;51.136;16.928;2023-05-07T01:57:42;890.92;;;827.53;;
59474;SDS011;45288;51.136;16.928;2023-05-07T02:00:09;888.50;;;826.43;;
59474;SDS011;45288;51.136;16.928;2023-05-07T02:02:41;897.20;;;834.63;;
59474;SDS011;45288;51.136;16.928;2023-05-07T02:05:14;878.67;;;817.95;;
59474;SDS011;45288;51.136;16.928;2023-05-07T02:07:41;897.13;;;833.88;;
59474;SDS011;45288;51.136;16.928;2023-05-07T02:10:07;892.60;;;826.47;;
59474;SDS011;45288;51.136;16.928;2023-05-07T02:12:33;886.53;;;814.55;;
59474;SDS011;45288;51.136;16.928;2023-05-07T02:14:59;889.75;;;827.80;;
59474;SDS011;45288;51.136;16.928;2023-05-07T02:17:25;898.65;;;834.05;;
59474;SDS011;45288;51.136;16.928;2023-05-07T02:19:51;905.45;;;832.75;;
59474;SDS011;45288;51.136;16.928;2023-05-07T02:22:17;889.33;;;829.67;;
59474;SDS011;45288;51.136;16.928;2023-05-07T02:24:43;891.93;;;831.80;;
59474;SDS011;45288;51.136;16.928;2023-05-07T02:27:10;886.13;;;824.85;;
59474;SDS011;45288;51.136;16.928;2023-05-07T02:29:37;875.05;;;818.03;;
59474;SDS011;45288;51.136;16.928;2023-05-07T02:32:02;895.53;;;829.90;;
59474;SDS011;45288;51.136;16.928;2023-05-07T02:34:28;890.50;;;825.67;;
59474;SDS011;45288;51.136;16.928;2023-05-07T02:36:53;886.05;;;821.25;;
59474;SDS011;45288;51.136;16.928;2023-05-07T02:39:23;902.60;;;832.65;;
59474;SDS011;45288;51.136;16.928;2023-05-07T02:41:48;896.53;;;828.38;;
59474;SDS011;45288;51.136;16.928;2023-05-07T02:44:15;894.13;;;826.50;;
59474;SDS011;45288;51.136;16.928;2023-05-07T02:46:41;895.13;;;829.72;;
59474;SDS011;45288;51.136;16.928;2023-05-07T02:49:09;899.42;;;834.17;;
59474;SDS011;45288;51.136;16.928;2023-05-07T02:51:35;903.50;;;837.65;;
59474;SDS011;45288;51.136;16.928;2023-05-07T02:54:03;846.72;;;791.92;;
59474;SDS011;45288;51.136;16.928;2023-05-07T02:56:31;890.55;;;827.38;;
59474;SDS011;45288;51.136;16.928;2023-05-07T02:58:56;900.38;;;833.22;;
59474;SDS011;45288;51.136;16.928;2023-05-07T03:01:25;886.50;;;819.93;;
59474;SDS011;45288;51.136;16.928;2023-05-07T03:03:59;890.60;;;817.75;;
59474;SDS011;45288;51.136;16.928;2023-05-07T03:06:25;875.33;;;804.20;;
59474;SDS011;45288;51.136;16.928;2023-05-07T03:08:51;878.13;;;810.57;;
59474;SDS011;45288;51.136;16.928;2023-05-07T03:11:17;878.57;;;807.23;;
59474;SDS011;45288;51.136;16.928;2023-05-07T03:13:43;871.08;;;808.63;;
59474;SDS011;45288;51.136;16.928;2023-05-07T03:16:08;878.27;;;810.23;;
59474;SDS011;45288;51.136;16.928;2023-05-07T03:18:34;883.97;;;808.72;;
59474;SDS011;45288;51.136;16.928;2023-05-07T03:21:00;879.97;;;821.17;;
59474;SDS011;45288;51.136;16.928;2023-05-07T03:23:26;882.17;;;813.63;;
59474;SDS011;45288;51.136;16.928;2023-05-07T03:25:51;872.53;;;812.47;;
59474;SDS011;45288;51.136;16.928;2023-05-07T03:28:17;887.42;;;824.35;;
59474;SDS011;45288;51.136;16.928;2023-05-07T03:30:49;888.90;;;814.22;;
59474;SDS011;45288;51.136;16.928;2023-05-07T03:33:15;885.97;;;817.77;;
59474;SDS011;45288;51.136;16.928;2023-05-07T03:35:41;874.88;;;817.45;;
59474;SDS011;45288;51.136;16.928;2023-05-07T03:38:07;890.00;;;831.60;;
59474;SDS011;45288;51.136;16.928;2023-05-07T03:40:34;878.20;;;819.80;;
59474;SDS011;45288;51.136;16.928;2023-05-07T03:43:02;883.67;;;823.83;;
59474;SDS011;45288;51.136;16.928;2023-05-07T03:45:30;889.95;;;827.95;;
59474;SDS011;45288;51.136;16.928;2023-05-07T03:48:05;881.43;;;820.67;;
59474;SDS011;45288;51.136;16.928;2023-05-07T03:50:31;889.60;;;829.05;;
59474;SDS011;45288;51.136;16.928;2023-05-07T03:52:57;889.78;;;826.38;;
59474;SDS011;45288;51.136;16.928;2023-05-07T03:55:23;847.60;;;792.80;;
59474;SDS011;45288;51.136;16.928;2023-05-07T03:57:53;844.40;;;790.42;;
59474;SDS011;45288;51.136;16.928;2023-05-07T04:00:20;844.15;;;790.35;;
59474;SDS011;45288;51.136;16.928;2023-05-07T04:02:46;874.17;;;817.83;;
59474;SDS011;45288;51.136;16.928;2023-05-07T04:05:13;868.10;;;812.33;;
59474;SDS011;45288;51.136;16.928;2023-05-07T04:07:40;870.28;;;813.95;;
59474;SDS011;45288;51.136;16.928;2023-05-07T04:10:06;878.80;;;821.50;;
59474;SDS011;45288;51.136;16.928;2023-05-07T04:12:32;875.00;;;818.10;;
59474;SDS011;45288;51.136;16.928;2023-05-07T04:14:58;883.00;;;825.65;;
59474;SDS011;45288;51.136;16.928;2023-05-07T04:17:24;874.28;;;816.65;;
59474;SDS011;45288;51.136;16.928;2023-05-07T04:19:50;877.60;;;820.35;;
59474;SDS011;45288;51.136;16.928;2023-05-07T04:22:17;872.55;;;815.80;;
59474;SDS011;45288;51.136;16.928;2023-05-07T04:24:43;872.90;;;815.70;;
59474;SDS011;45288;51.136;16.928;2023-05-07T04:27:10;878.83;;;821.35;;
59474;SDS011;45288;51.136;16.928;2023-05-07T04:29:36;887.00;;;828.23;;
59474;SDS011;45288;51.136;16.928;2023-05-07T04:32:01;879.75;;;822.83;;
59474;SDS011;45288;51.136;16.928;2023-05-07T04:34:27;885.20;;;827.13;;
59474;SDS011;45288;51.136;16.928;2023-05-07T04:36:53;883.73;;;826.27;;
59474;SDS011;45288;51.136;16.928;2023-05-07T04:39:18;891.80;;;832.92;;
59474;SDS011;45288;51.136;16.928;2023-05-07T04:41:46;882.08;;;823.67;;
59474;SDS011;45288;51.136;16.928;2023-05-07T04:44:12;899.53;;;831.40;;
59474;SDS011;45288;51.136;16.928;2023-05-07T04:46:37;898.63;;;829.23;;
59474;SDS011;45288;51.136;16.928;2023-05-07T04:49:03;887.85;;;822.95;;
59474;SDS011;45288;51.136;16.928;2023-05-07T04:51:29;889.40;;;825.00;;
59474;SDS011;45288;51.136;16.928;2023-05-07T04:53:54;887.97;;;820.77;;
59474;SDS011;45288;51.136;16.928;2023-05-07T04:56:20;881.42;;;822.13;;
59474;SDS011;45288;51.136;16.928;2023-05-07T04:58:47;887.90;;;827.95;;
59474;SDS011;45288;51.136;16.928;2023-05-07T05:01:13;885.90;;;822.65;;
59474;SDS011;45288;51.136;16.928;2023-05-07T05:03:39;896.75;;;830.90;;
59474;SDS011;45288;51.136;16.928;2023-05-07T05:06:07;901.33;;;827.80;;
59474;SDS011;45288;51.136;16.928;2023-05-07T05:08:33;894.55;;;828.00;;
59474;SDS011;45288;51.136;16.928;2023-05-07T05:11:01;892.45;;;827.75;;
59474;SDS011;45288;51.136;16.928;2023-05-07T05:13:27;894.05;;;829.50;;
59474;SDS011;45288;51.136;16.928;2023-05-07T05:15:53;890.30;;;815.60;;
59474;SDS011;45288;51.136;16.928;2023-05-07T05:18:19;888.47;;;818.90;;
59474;SDS011;45288;51.136;16.928;2023-05-07T05:20:46;885.83;;;812.13;;
59474;SDS011;45288;51.136;16.928;2023-05-07T05:23:12;881.15;;;809.63;;
59474;SDS011;45288;51.136;16.928;2023-05-07T05:25:38;880.10;;;813.22;;
59474;SDS011;45288;51.136;16.928;2023-05-07T05:28:04;880.22;;;811.30;;
59474;SDS011;45288;51.136;16.928;2023-05-07T05:30:32;874.00;;;802.03;;
59474;SDS011;45288;51.136;16.928;2023-05-07T05:32:58;881.35;;;809.05;;
59474;SDS011;45288;51.136;16.928;2023-05-07T05:35:26;874.88;;;802.10;;
59474;SDS011;45288;51.136;16.928;2023-05-07T05:37:52;872.13;;;804.17;;
59474;SDS011;45288;51.136;16.928;2023-05-07T05:40:18;864.33;;;792.17;;
59474;SDS011;45288;51.136;16.928;2023-05-07T05:42:44;870.77;;;792.60;;
59474;SDS011;45288;51.136;16.928;2023-05-07T05:45:10;859.65;;;798.13;;
59474;SDS011;45288;51.136;16.928;2023-05-07T05:47:37;881.30;;;817.87;;
59474;SDS011;45288;51.136;16.928;2023-05-07T05:50:03;865.42;;;798.97;;
59474;SDS011;45288;51.136;16.928;2023-05-07T05:52:30;863.75;;;796.92;;
59474;SDS011;45288;51.136;16.928;2023-05-07T05:54:56;858.85;;;787.30;;
59474;SDS011;45288;51.136;16.928;2023-05-07T05:57:22;860.15;;;783.13;;
59474;SDS011;45288;51.136;16.928;2023-05-07T05:59:47;851.70;;;786.10;;
59474;SDS011;45288;51.136;16.928;2023-05-07T06:02:13;854.93;;;793.77;;
59474;SDS011;45288;51.136;16.928;2023-05-07T06:04:39;867.70;;;803.92;;
59474;SDS011;45288;51.136;16.928;2023-05-07T06:07:05;860.03;;;797.27;;
59474;SDS011;45288;51.136;16.928;2023-05-07T06:09:31;865.47;;;796.63;;
59474;SDS011;45288;51.136;16.928;2023-05-07T06:11:57;875.38;;;808.13;;
59474;SDS011;45288;51.136;16.928;2023-05-07T06:14:22;859.33;;;796.37;;
59474;SDS011;45288;51.136;16.928;2023-05-07T06:16:48;869.30;;;803.83;;
59474;SDS011;45288;51.136;16.928;2023-05-07T06:19:14;856.30;;;789.17;;
59474;SDS011;45288;51.136;16.928;2023-05-07T06:21:41;859.05;;;785.40;;
59474;SDS011;45288;51.136;16.928;2023-05-07T06:24:06;850.40;;;783.23;;
59474;SDS011;45288;51.136;16.928;2023-05-07T06:26:32;860.67;;;791.70;;
59474;SDS011;45288;51.136;16.928;2023-05-07T06:28:58;848.10;;;786.75;;
59474;SDS011;45288;51.136;16.928;2023-05-07T06:31:28;863.00;;;798.20;;
59474;SDS011;45288;51.136;16.928;2023-05-07T06:33:59;853.15;;;792.55;;
59474;SDS011;45288;51.136;16.928;2023-05-07T06:36:31;865.50;;;803.28;;
59474;SDS011;45288;51.136;16.928;2023-05-07T06:38:59;869.10;;;807.75;;
59474;SDS011;45288;51.136;16.928;2023-05-07T06:41:25;858.37;;;799.37;;
59474;SDS011;45288;51.136;16.928;2023-05-07T06:43:51;876.80;;;812.35;;
59474;SDS011;45288;51.136;16.928;2023-05-07T06:46:35;862.25;;;793.58;;
59474;SDS011;45288;51.136;16.928;2023-05-07T06:49:03;872.13;;;806.95;;
59474;SDS011;45288;51.136;16.928;2023-05-07T06:51:28;870.75;;;808.38;;
59474;SDS011;45288;51.136;16.928;2023-05-07T06:53:55;857.38;;;800.30;;
59474;SDS011;45288;51.136;16.928;2023-05-07T06:56:20;865.63;;;808.17;;
59474;SDS011;45288;51.136;16.928;2023-05-07T06:58:47;888.08;;;825.13;;
59474;SDS011;45288;51.136;16.928;2023-05-07T07:01:12;889.63;;;822.40;;
59474;SDS011;45288;51.136;16.928;2023-05-07T07:03:38;875.83;;;809.10;;
59474;SDS011;45288;51.136;16.928;2023-05-07T07:06:04;872.77;;;806.43;;
59474;SDS011;45288;51.136;16.928;2023-05-07T07:08:30;868.08;;;803.45;;
59474;SDS011;45288;51.136;16.928;2023-05-07T07:10:56;882.42;;;806.03;;
59474;SDS011;45288;51.136;16.928;2023-05-07T07:13:21;869.10;;;806.93;;
59474;SDS011;45288;51.136;16.928;2023-05-07T07:15:47;875.33;;;810.95;;
59474;SDS011;45288;51.136;16.928;2023-05-07T07:18:13;875.60;;;809.90;;
59474;SDS011;45288;51.136;16.928;2023-05-07T07:20:39;882.37;;;815.47;;
59474;SDS011;45288;51.136;16.928;2023-05-07T07:23:07;879.95;;;816.67;;
59474;SDS011;45288;51.136;16.928;2023-05-07T07:25:32;894.85;;;824.60;;
59474;SDS011;45288;51.136;16.928;2023-05-07T07:27:59;880.63;;;812.10;;
59474;SDS011;45288;51.136;16.928;2023-05-07T07:30:26;890.15;;;820.53;;
59474;SDS011;45288;51.136;16.928;2023-05-07T07:32:52;895.93;;;824.77;;
59474;SDS011;45288;51.136;16.928;2023-05-07T07:35:19;888.42;;;825.40;;
59474;SDS011;45288;51.136;16.928;2023-05-07T07:37:46;898.75;;;835.38;;
59474;SDS011;45288;51.136;16.928;2023-05-07T07:40:13;899.33;;;833.70;;
59474;SDS011;45288;51.136;16.928;2023-05-07T07:42:39;900.90;;;835.53;;
59474;SDS011;45288;51.136;16.928;2023-05-07T07:45:05;908.80;;;830.92;;
59474;SDS011;45288;51.136;16.928;2023-05-07T07:47:34;921.47;;;851.10;;
59474;SDS011;45288;51.136;16.928;2023-05-07T07:50:00;915.80;;;845.93;;
59474;SDS011;45288;51.136;16.928;2023-05-07T07:52:27;913.28;;;842.97;;
59474;SDS011;45288;51.136;16.928;2023-05-07T07:54:53;913.42;;;842.13;;
59474;SDS011;45288;51.136;16.928;2023-05-07T07:57:20;917.97;;;845.85;;
59474;SDS011;45288;51.136;16.928;2023-05-07T07:59:46;927.85;;;854.65;;
59474;SDS011;45288;51.136;16.928;2023-05-07T08:02:14;907.90;;;837.58;;
59474;SDS011;45288;51.136;16.928;2023-05-07T08:04:40;906.42;;;842.75;;
59474;SDS011;45288;51.136;16.928;2023-05-07T08:07:07;909.42;;;847.45;;
59474;SDS011;45288;51.136;16.928;2023-05-07T08:09:36;911.93;;;848.97;;
59474;SDS011;45288;51.136;16.928;2023-05-07T08:12:03;903.45;;;840.03;;
59474;SDS011;45288;51.136;16.928;2023-05-07T08:14:32;900.65;;;833.15;;
59474;SDS011;45288;51.136;16.928;2023-05-07T08:16:59;891.45;;;822.97;;
59474;SDS011;45288;51.136;16.928;2023-05-07T08:19:25;907.72;;;834.47;;
59474;SDS011;45288;51.136;16.928;2023-05-07T08:21:50;896.27;;;825.83;;
59474;SDS011;45288;51.136;16.928;2023-05-07T08:24:17;899.78;;;836.90;;
59474;SDS011;45288;51.136;16.928;2023-05-07T08:26:44;889.97;;;826.83;;
59474;SDS011;45288;51.136;16.928;2023-05-07T08:29:11;887.72;;;825.10;;
59474;SDS011;45288;51.136;16.928;2023-05-07T08:31:37;888.00;;;823.10;;
59474;SDS011;45288;51.136;16.928;2023-05-07T08:34:04;895.63;;;827.85;;
59474;SDS011;45288;51.136;16.928;2023-05-07T08:36:31;897.63;;;830.22;;
59474;SDS011;45288;51.136;16.928;2023-05-07T08:38:56;892.83;;;827.17;;
59474;SDS011;45288;51.136;16.928;2023-05-07T08:41:22;903.88;;;830.75;;
59474;SDS011;45288;51.136;16.928;2023-05-07T08:43:48;885.97;;;815.80;;
59474;SDS011;45288;51.136;16.928;2023-05-07T08:46:21;882.83;;;812.53;;
59474;SDS011;45288;51.136;16.928;2023-05-07T08:48:49;889.17;;;817.88;;
59474;SDS011;45288;51.136;16.928;2023-05-07T08:51:16;877.58;;;811.53;;
59474;SDS011;45288;51.136;16.928;2023-05-07T08:53:43;889.60;;;828.60;;
59474;SDS011;45288;51.136;16.928;2023-05-07T08:56:12;884.58;;;823.42;;
59474;SDS011;45288;51.136;16.928;2023-05-07T08:58:39;901.22;;;828.95;;
59474;SDS011;45288;51.136;16.928;2023-05-07T09:01:09;900.03;;;834.78;;
59474;SDS011;45288;51.136;16.928;2023-05-07T09:03:37;909.35;;;842.30;;
59474;SDS011;45288;51.136;16.928;2023-05-07T09:06:03;893.83;;;827.05;;
59474;SDS011;45288;51.136;16.928;2023-05-07T09:08:29;883.67;;;821.53;;
59474;SDS011;45288;51.136;16.928;2023-05-07T09:10:59;873.75;;;813.72;;
59474;SDS011;45288;51.136;16.928;2023-05-07T09:13:25;891.38;;;831.00;;
59474;SDS011;45288;51.136;16.928;2023-05-07T09:15:51;889.95;;;827.28;;
59474;SDS011;45288;51.136;16.928;2023-05-07T09:18:17;884.15;;;819.28;;
59474;SDS011;45288;51.136;16.928;2023-05-07T09:20:45;892.63;;;820.45;;
59474;SDS011;45288;51.136;16.928;2023-05-07T09:23:11;881.20;;;816.00;;
59474;SDS011;45288;51.136;16.928;2023-05-07T09:25:37;896.95;;;828.13;;
59474;SDS011;45288;51.136;16.928;2023-05-07T09:28:09;897.10;;;832.00;;
59474;SDS011;45288;51.136;16.928;2023-05-07T09:30:36;905.58;;;837.28;;
59474;SDS011;45288;51.136;16.928;2023-05-07T09:33:04;905.58;;;836.20;;
59474;SDS011;45288;51.136;16.928;2023-05-07T09:35:32;907.97;;;836.67;;
59474;SDS011;45288;51.136;16.928;2023-05-07T09:38:03;895.83;;;825.83;;
59474;SDS011;45288;51.136;16.928;2023-05-07T09:40:31;904.90;;;835.80;;
59474;SDS011;45288;51.136;16.928;2023-05-07T09:43:09;912.60;;;840.53;;
59474;SDS011;45288;51.136;16.928;2023-05-07T09:45:35;911.88;;;843.35;;
59474;SDS011;45288;51.136;16.928;2023-05-07T09:48:02;901.57;;;827.43;;
59474;SDS011;45288;51.136;16.928;2023-05-07T09:50:32;892.33;;;832.55;;
59474;SDS011;45288;51.136;16.928;2023-05-07T09:53:01;900.85;;;840.17;;
59474;SDS011;45288;51.136;16.928;2023-05-07T09:55:28;899.90;;;839.33;;
59474;SDS011;45288;51.136;16.928;2023-05-07T09:57:54;920.83;;;844.83;;
59474;SDS011;45288;51.136;16.928;2023-05-07T10:00:21;893.22;;;835.75;;
59474;SDS011;45288;51.136;16.928;2023-05-07T10:02:48;903.10;;;842.75;;
59474;SDS011;45288;51.136;16.928;2023-05-07T10:05:15;920.43;;;857.17;;
59474;SDS011;45288;51.136;16.928;2023-05-07T10:07:42;919.35;;;853.60;;
59474;SDS011;45288;51.136;16.928;2023-05-07T10:10:09;930.08;;;861.92;;
59474;SDS011;45288;51.136;16.928;2023-05-07T10:12:40;938.42;;;863.40;;
59474;SDS011;45288;51.136;16.928;2023-05-07T10:15:14;919.80;;;837.23;;
59474;SDS011;45288;51.136;16.928;2023-05-07T10:17:44;915.47;;;833.65;;
59474;SDS011;45288;51.136;16.928;2023-05-07T10:20:11;934.72;;;861.30;;
59474;SDS011;45288;51.136;16.928;2023-05-07T10:22:44;957.63;;;882.80;;
59474;SDS011;45288;51.136;16.928;2023-05-07T10:25:18;959.13;;;884.58;;
59474;SDS011;45288;51.136;16.928;2023-05-07T10:27:46;959.05;;;882.08;;
59474;SDS011;45288;51.136;16.928;2023-05-07T10:33:08;955.35;;;871.10;;
59474;SDS011;45288;51.136;16.928;2023-05-07T10:35:38;943.33;;;860.17;;
59474;SDS011;45288;51.136;16.928;2023-05-07T10:38:06;947.53;;;863.57;;
59474;SDS011;45288;51.136;16.928;2023-05-07T10:40:35;940.10;;;856.22;;
59474;SDS011;45288;51.136;16.928;2023-05-07T10:43:03;944.38;;;860.45;;
59474;SDS011;45288;51.136;16.928;2023-05-07T10:45:38;940.60;;;857.08;;
59474;SDS011;45288;51.136;16.928;2023-05-07T10:48:14;942.50;;;858.88;;
59474;SDS011;45288;51.136;16.928;2023-05-07T10:50:42;940.40;;;857.20;;
59474;SDS011;45288;51.136;16.928;2023-05-07T10:58:45;963.65;;;884.03;;
59474;SDS011;45288;51.136;16.928;2023-05-07T11:01:48;956.88;;;881.42;;
59474;SDS011;45288;51.136;16.928;2023-05-07T11:04:14;962.80;;;887.60;;
59474;SDS011;45288;51.136;16.928;2023-05-07T11:07:03;951.28;;;871.53;;
59474;SDS011;45288;51.136;16.928;2023-05-07T11:09:53;933.28;;;850.90;;
59474;SDS011;45288;51.136;16.928;2023-05-07T11:12:14;942.60;;;859.42;;
59474;SDS011;45288;51.136;16.928;2023-05-07T11:14:48;957.13;;;876.25;;
59474;SDS011;45288;51.136;16.928;2023-05-07T11:17:23;953.78;;;882.05;;
59474;SDS011;45288;51.136;16.928;2023-05-07T11:19:57;960.23;;;889.67;;
59474;SDS011;45288;51.136;16.928;2023-05-07T11:25:09;934.80;;;873.65;;
59474;SDS011;45288;51.136;16.928;2023-05-07T11:27:35;950.15;;;886.75;;
59474;SDS011;45288;51.136;16.928;2023-05-07T11:30:01;951.15;;;884.78;;
59474;SDS011;45288;51.136;16.928;2023-05-07T11:32:28;949.10;;;882.85;;
59474;SDS011;45288;51.136;16.928;2023-05-07T11:34:54;950.92;;;885.97;;
59474;SDS011;45288;51.136;16.928;2023-05-07T11:37:21;944.90;;;883.00;;
59474;SDS011;45288;51.136;16.928;2023-05-07T11:40:07;931.10;;;870.22;;
59474;SDS011;45288;51.136;16.928;2023-05-07T11:42:34;944.45;;;876.55;;
59474;SDS011;45288;51.136;16.928;2023-05-07T11:45:00;953.88;;;887.35;;
59474;SDS011;45288;51.136;16.928;2023-05-07T11:47:31;935.83;;;869.05;;
59474;SDS011;45288;51.136;16.928;2023-05-07T11:49:57;937.78;;;874.08;;
59474;SDS011;45288;51.136;16.928;2023-05-07T11:52:37;934.60;;;872.83;;
59474;SDS011;45288;51.136;16.928;2023-05-07T11:55:04;940.03;;;877.80;;
59474;SDS011;45288;51.136;16.928;2023-05-07T11:57:30;953.67;;;891.22;;
59474;SDS011;45288;51.136;16.928;2023-05-07T11:59:58;960.95;;;897.20;;
59474;SDS011;45288;51.136;16.928;2023-05-07T12:02:24;947.47;;;885.75;;
59474;SDS011;45288;51.136;16.928;2023-05-07T12:04:50;943.35;;;882.00;;
59474;SDS011;45288;51.136;16.928;2023-05-07T12:07:16;940.50;;;879.65;;
59474;SDS011;45288;51.136;16.928;2023-05-07T12:09:42;949.67;;;887.37;;
59474;SDS011;45288;51.136;16.928;2023-05-07T12:12:22;958.20;;;894.60;;
59474;SDS011;45288;51.136;16.928;2023-05-07T12:15:01;953.97;;;889.67;;
59474;SDS011;45288;51.136;16.928;2023-05-07T12:17:30;951.50;;;888.80;;
59474;SDS011;45288;51.136;16.928;2023-05-07T12:19:56;970.10;;;904.30;;
59474;SDS011;45288;51.136;16.928;2023-05-07T12:22:22;971.55;;;900.72;;
59474;SDS011;45288;51.136;16.928;2023-05-07T12:24:48;977.17;;;909.37;;
59474;SDS011;45288;51.136;16.928;2023-05-07T12:27:14;989.40;;;923.28;;
59474;SDS011;45288;51.136;16.928;2023-05-07T12:29:47;968.65;;;904.75;;
59474;SDS011;45288;51.136;16.928;2023-05-07T12:32:13;965.63;;;902.78;;
59474;SDS011;45288;51.136;16.928;2023-05-07T12:34:39;959.72;;;896.78;;
59474;SDS011;45288;51.136;16.928;2023-05-07T12:37:04;962.13;;;899.42;;
59474;SDS011;45288;51.136;16.928;2023-05-07T12:39:30;936.17;;;875.87;;
59474;SDS011;45288;51.136;16.928;2023-05-07T12:41:56;954.72;;;892.38;;
59474;SDS011;45288;51.136;16.928;2023-05-07T12:44:24;954.13;;;891.78;;
59474;SDS011;45288;51.136;16.928;2023-05-07T12:46:49;967.72;;;903.53;;
59474;SDS011;45288;51.136;16.928;2023-05-07T12:49:15;954.40;;;891.72;;
59474;SDS011;45288;51.136;16.928;2023-05-07T12:51:43;973.13;;;906.45;;
59474;SDS011;45288;51.136;16.928;2023-05-07T12:54:09;978.13;;;898.87;;
59474;SDS011;45288;51.136;16.928;2023-05-07T12:56:39;957.60;;;891.03;;
59474;SDS011;45288;51.136;16.928;2023-05-07T12:59:04;970.28;;;901.88;;
59474;SDS011;45288;51.136;16.928;2023-05-07T13:01:30;985.97;;;916.03;;
59474;SDS011;45288;51.136;16.928;2023-05-07T13:04:00;980.83;;;908.80;;
59474;SDS011;45288;51.136;16.928;2023-05-07T13:06:27;979.35;;;906.42;;
59474;SDS011;45288;51.136;16.928;2023-05-07T13:08:52;974.77;;;904.27;;
59474;SDS011;45288;51.136;16.928;2023-05-07T13:11:18;978.33;;;904.92;;
59474;SDS011;45288;51.136;16.928;2023-05-07T13:13:44;989.30;;;911.60;;
59474;SDS011;45288;51.136;16.928;2023-05-07T13:16:10;982.67;;;913.38;;
59474;SDS011;45288;51.136;16.928;2023-05-07T13:18:37;991.08;;;922.65;;
59474;SDS011;45288;51.136;16.928;2023-05-07T13:21:03;986.70;;;918.70;;
59474;SDS011;45288;51.136;16.928;2023-05-07T13:23:29;992.60;;;924.75;;
59474;SDS011;45288;51.136;16.928;2023-05-07T13:25:54;991.72;;;923.28;;
59474;SDS011;45288;51.136;16.928;2023-05-07T13:28:21;998.38;;;930.35;;
59474;SDS011;45288;51.136;16.928;2023-05-07T13:30:47;988.72;;;921.88;;
59474;SDS011;45288;51.136;16.928;2023-05-07T13:33:13;985.15;;;917.38;;
59474;SDS011;45288;51.136;16.928;2023-05-07T13:35:39;984.90;;;917.07;;
59474;SDS011;45288;51.136;16.928;2023-05-07T13:38:05;984.13;;;915.30;;
59474;SDS011;45288;51.136;16.928;2023-05-07T13:40:30;979.50;;;908.42;;
59474;SDS011;45288;51.136;16.928;2023-05-07T13:42:59;986.80;;;912.73;;
59474;SDS011;45288;51.136;16.928;2023-05-07T13:45:30;986.97;;;909.88;;
59474;SDS011;45288;51.136;16.928;2023-05-07T13:47:56;987.47;;;912.20;;
59474;SDS011;45288;51.136;16.928;2023-05-07T13:50:22;975.85;;;901.08;;
59474;SDS011;45288;51.136;16.928;2023-05-07T13:52:48;979.25;;;904.15;;
59474;SDS011;45288;51.136;16.928;2023-05-07T13:55:19;967.10;;;894.53;;